EmailTwitter


Observations de surface / États-Unis / KJFK (74486)

Régions: Québec | Canada | États-Unis | Europe | France | UK | Ailleurs
Station
Affichage
Infos & localisation pour KJFK (74486) | Aide pour décoder les METARs

Observations prises le 2020-02-21 à 02H51 UTC à NEW YORK/JF KENN, NY (KJFK)

Etat du ciel: partiellement nuageux.

Température: -1.1 Celsius

Point de rosée: -12.2 Celsius

Humidité relative: 43%

Facteur vent: -8.

Vents: Nord à 28 km/h ou 15 noeuds.

Pression au niveau moyen de la mer: 103.10 kilopascals.

Calage altimétrique: 103.11 kilopascals ou 30.45 pouces de mercure.

Visibilité horizontale: 10.00 milles terrestres ou 16.00 kilomètres.

Hauteur du plafond: 6401 mètres ( 21000 pieds ).

Observation METAR:

KJFK 210251Z 36015KT 10SM BKN210 M01/M12 A3045 RMK AO2 PK WND 34026/0227 SLP310

T10111122 53009 $=